createdAt,value
2018-12-18T00:00:08.305Z,30.25
2018-12-18T00:00:43.690Z,29.98
2018-12-18T00:01:19.101Z,30.48
2018-12-18T00:01:54.667Z,31.15
2018-12-18T00:02:30.052Z,32.23
2018-12-18T00:03:05.495Z,33.33
2018-12-18T00:03:40.886Z,33.00
2018-12-18T00:04:16.727Z,33.75
2018-12-18T00:04:52.454Z,32.85
2018-12-18T00:05:42.749Z,33.45
2018-12-18T00:06:16.091Z,34.08
2018-12-18T00:06:49.476Z,33.92
2018-12-18T00:07:22.872Z,35.38
2018-12-18T00:07:56.243Z,35.48
2018-12-18T00:08:29.602Z,35.23
2018-12-18T00:09:05.498Z,34.10
2018-12-18T00:09:40.010Z,33.75
2018-12-18T00:10:13.627Z,35.50
2018-12-18T00:10:51.554Z,33.95
2018-12-18T00:11:24.979Z,35.23
2018-12-18T00:11:59.529Z,35.28
2018-12-18T00:12:32.905Z,35.85
2018-12-18T00:13:06.369Z,36.40
2018-12-18T00:13:39.759Z,36.35
2018-12-18T00:14:13.119Z,36.08
2018-12-18T00:14:46.493Z,35.85
2018-12-18T00:15:19.875Z,36.75
2018-12-18T00:15:53.426Z,36.00
2018-12-18T00:16:26.839Z,35.98
2018-12-18T00:17:00.317Z,34.90
2018-12-18T00:17:33.677Z,35.55
2018-12-18T00:18:07.131Z,35.88
2018-12-18T00:18:40.465Z,35.63
2018-12-18T00:19:13.820Z,37.08
2018-12-18T00:19:47.215Z,36.55
2018-12-18T00:20:21.077Z,36.98
2018-12-18T00:20:54.461Z,36.65
2018-12-18T00:21:27.831Z,36.85
2018-12-18T00:22:01.224Z,36.23
2018-12-18T00:22:34.593Z,36.30
2018-12-18T00:23:08.029Z,36.53
2018-12-18T00:23:41.453Z,34.95
2018-12-18T00:24:15.953Z,34.80
2018-12-18T00:24:49.313Z,34.03
2018-12-18T00:25:22.826Z,33.65
2018-12-18T00:25:56.221Z,34.15
2018-12-18T00:26:29.573Z,33.60
2018-12-18T00:27:02.946Z,33.18
2018-12-18T00:27:36.287Z,32.98
2018-12-18T00:28:09.769Z,33.08
2018-12-18T00:28:43.241Z,32.98
2018-12-18T00:29:16.575Z,33.00
2018-12-18T00:29:49.925Z,32.63
2018-12-18T00:30:23.315Z,32.88
2018-12-18T00:30:56.691Z,32.45
2018-12-18T00:31:32.210Z,33.20
2018-12-18T00:32:05.595Z,33.65
2018-12-18T00:32:39.083Z,33.05
2018-12-18T00:33:12.591Z,33.65
2018-12-18T00:33:46.259Z,32.75
2018-12-18T00:34:19.705Z,32.78
2018-12-18T00:34:53.117Z,34.00
2018-12-18T00:35:26.545Z,33.45
2018-12-18T00:35:59.991Z,34.58
2018-12-18T00:36:33.386Z,33.85
2018-12-18T00:37:06.729Z,33.63
2018-12-18T00:37:40.097Z,34.45
2018-12-18T00:38:13.493Z,34.95
2018-12-18T00:38:46.904Z,35.68
2018-12-18T00:39:28.627Z,35.88
2018-12-18T00:40:02.088Z,36.25
2018-12-18T00:40:35.573Z,36.58
2018-12-18T00:41:09.094Z,36.80
2018-12-18T00:41:42.901Z,35.78
2018-12-18T00:42:16.299Z,36.03
2018-12-18T00:42:49.691Z,35.85
2018-12-18T00:43:23.076Z,37.10
2018-12-18T00:43:56.453Z,36.83
2018-12-18T00:44:29.882Z,35.88
2018-12-18T00:45:03.517Z,36.53
2018-12-18T00:45:36.891Z,36.60
2018-12-18T00:46:10.321Z,36.00
2018-12-18T00:46:43.694Z,36.03
2018-12-18T00:47:17.045Z,36.38
2018-12-18T00:47:50.617Z,35.95
2018-12-18T00:48:23.978Z,36.80
2018-12-18T00:48:57.384Z,35.63
2018-12-18T00:49:31.020Z,35.80
2018-12-18T00:50:04.738Z,36.40
2018-12-18T00:50:38.182Z,35.78
2018-12-18T00:51:11.576Z,35.95
2018-12-18T00:51:44.918Z,35.10
2018-12-18T00:52:18.282Z,35.80
2018-12-18T00:52:51.662Z,35.70
2018-12-18T00:53:25.088Z,34.70
2018-12-18T00:53:58.487Z,35.63
2018-12-18T00:54:31.854Z,36.10
2018-12-18T00:55:06.070Z,35.40
2018-12-18T00:55:39.446Z,36.05
2018-12-18T00:56:12.831Z,36.10
2018-12-18T00:56:46.169Z,35.68
2018-12-18T00:57:19.578Z,35.48
2018-12-18T00:57:52.971Z,35.28
2018-12-18T00:58:26.328Z,35.60
2018-12-18T00:58:59.720Z,34.85
2018-12-18T00:59:33.069Z,35.15
2018-12-18T01:00:07.030Z,34.23
2018-12-18T01:00:41.818Z,35.52
2018-12-18T01:01:15.305Z,33.92
2018-12-18T01:01:55.024Z,34.60
2018-12-18T01:02:28.647Z,34.33
2018-12-18T01:03:02.022Z,34.38
2018-12-18T01:03:35.374Z,34.78
2018-12-18T01:04:08.780Z,34.63
2018-12-18T01:04:42.159Z,35.05
2018-12-18T01:05:16.740Z,34.27
2018-12-18T01:05:50.118Z,34.18
2018-12-18T01:06:24.392Z,34.63
2018-12-18T01:06:57.766Z,35.20
2018-12-18T01:07:31.154Z,34.92
2018-12-18T01:08:04.566Z,34.50
2018-12-18T01:08:38.111Z,34.48
2018-12-18T01:09:11.592Z,35.50
2018-12-18T01:09:44.976Z,34.58
2018-12-18T01:10:18.392Z,34.58
2018-12-18T01:10:51.758Z,35.08
2018-12-18T01:11:25.574Z,34.67
2018-12-18T01:11:58.918Z,33.65
2018-12-18T01:12:32.266Z,34.10
2018-12-18T01:13:05.680Z,33.65
2018-12-18T01:13:39.024Z,33.65
2018-12-18T01:14:12.396Z,33.73
2018-12-18T01:14:45.804Z,32.58
2018-12-18T01:15:19.226Z,34.70
2018-12-18T01:15:52.603Z,35.10
2018-12-18T01:16:26.090Z,35.73
2018-12-18T01:16:59.498Z,34.27
2018-12-18T01:17:32.858Z,34.25
2018-12-18T01:18:06.331Z,34.33
2018-12-18T01:18:39.798Z,34.85
2018-12-18T01:19:13.164Z,34.38
2018-12-18T01:19:46.554Z,34.58
2018-12-18T01:20:19.924Z,33.92
2018-12-18T01:20:53.413Z,34.05
2018-12-18T01:21:26.776Z,34.67
2018-12-18T01:22:00.247Z,34.10
2018-12-18T01:22:33.606Z,33.58
2018-12-18T01:23:06.995Z,34.18
2018-12-18T01:23:40.461Z,33.88
2018-12-18T01:24:13.837Z,34.55
2018-12-18T01:24:47.174Z,33.33
2018-12-18T01:25:20.527Z,33.38
2018-12-18T01:25:53.872Z,34.38
2018-12-18T01:26:27.213Z,33.55
2018-12-18T01:27:00.573Z,33.98
2018-12-18T01:27:33.930Z,34.83
2018-12-18T01:28:07.320Z,35.55
2018-12-18T01:28:40.681Z,34.58
2018-12-18T01:29:14.046Z,33.83
2018-12-18T01:29:47.433Z,34.13
2018-12-18T01:30:20.840Z,35.10
2018-12-18T01:30:54.351Z,34.40
2018-12-18T01:31:27.757Z,34.88
2018-12-18T01:32:01.127Z,34.10
2018-12-18T01:32:34.451Z,33.50
2018-12-18T01:33:07.799Z,34.18
2018-12-18T01:33:41.181Z,33.65
2018-12-18T01:34:14.557Z,33.73
2018-12-18T01:34:47.941Z,33.08
2018-12-18T01:35:21.363Z,33.45
2018-12-18T01:35:54.763Z,34.58
2018-12-18T01:36:28.217Z,33.92
2018-12-18T01:37:01.553Z,33.80
2018-12-18T01:37:34.910Z,34.55
2018-12-18T01:38:08.288Z,34.40
2018-12-18T01:38:41.655Z,34.65
2018-12-18T01:39:15.017Z,34.80
2018-12-18T01:39:48.423Z,33.55
2018-12-18T01:40:21.893Z,34.05
2018-12-18T01:40:55.273Z,33.92
2018-12-18T01:41:28.847Z,34.20
2018-12-18T01:42:02.227Z,34.05
2018-12-18T01:42:35.899Z,34.38
2018-12-18T01:43:09.292Z,34.48
2018-12-18T01:43:42.675Z,33.65
2018-12-18T01:44:16.063Z,33.40
2018-12-18T01:44:49.428Z,33.28
2018-12-18T01:45:22.775Z,34.10
2018-12-18T01:45:56.229Z,33.02
2018-12-18T01:46:29.582Z,34.70
2018-12-18T01:47:03.083Z,34.80
2018-12-18T01:47:36.479Z,32.55
2018-12-18T01:48:09.864Z,33.30
2018-12-18T01:48:43.250Z,32.35
2018-12-18T01:49:16.589Z,32.80
2018-12-18T01:49:49.945Z,33.02
2018-12-18T01:50:23.304Z,33.67
2018-12-18T01:50:56.691Z,33.90
2018-12-18T01:51:30.018Z,33.08
2018-12-18T01:52:03.422Z,33.18
2018-12-18T01:52:36.816Z,33.78
2018-12-18T01:53:10.214Z,34.27
2018-12-18T01:53:43.560Z,33.90
2018-12-18T01:54:16.938Z,34.33
2018-12-18T01:54:50.322Z,33.25
2018-12-18T01:55:23.694Z,33.67
2018-12-18T01:55:57.034Z,33.33
2018-12-18T01:56:30.542Z,33.25
2018-12-18T01:57:03.929Z,33.30
2018-12-18T01:57:37.316Z,33.38
2018-12-18T01:58:10.702Z,33.05
2018-12-18T01:58:44.064Z,34.18
2018-12-18T01:59:17.610Z,34.27
2018-12-18T01:59:51.512Z,33.40
2018-12-18T02:00:24.906Z,33.42
2018-12-18T02:00:58.280Z,34.18
2018-12-18T02:01:31.674Z,34.58
2018-12-18T02:02:05.048Z,33.15
2018-12-18T02:02:38.418Z,33.80
2018-12-18T02:03:11.790Z,34.40
2018-12-18T02:03:45.206Z,34.08
2018-12-18T02:04:18.552Z,33.33
2018-12-18T02:04:51.938Z,34.15
2018-12-18T02:05:25.320Z,33.95
2018-12-18T02:05:58.810Z,34.00
2018-12-18T02:06:32.180Z,34.60
2018-12-18T02:07:05.648Z,34.88
2018-12-18T02:07:38.992Z,35.60
2018-12-18T02:08:12.348Z,34.98
2018-12-18T02:08:45.772Z,34.98
2018-12-18T02:09:19.129Z,35.73
2018-12-18T02:09:52.472Z,35.80
2018-12-18T02:10:26.310Z,35.98
2018-12-18T02:10:59.670Z,36.05
2018-12-18T02:11:34.328Z,35.68
2018-12-18T02:12:07.818Z,37.35
2018-12-18T02:12:41.166Z,37.83
2018-12-18T02:13:14.578Z,37.08
2018-12-18T02:13:49.150Z,38.48
2018-12-18T02:14:22.508Z,39.85
2018-12-18T02:14:55.892Z,38.67
2018-12-18T02:15:29.235Z,39.00
2018-12-18T02:16:02.748Z,40.00
2018-12-18T02:16:36.184Z,40.55
2018-12-18T02:17:09.680Z,41.98
2018-12-18T02:17:43.063Z,41.73
2018-12-18T02:18:16.456Z,42.98
2018-12-18T02:18:50.934Z,43.30
2018-12-18T02:19:24.342Z,43.17
2018-12-18T02:19:57.728Z,43.28
2018-12-18T02:20:31.120Z,43.00
2018-12-18T02:21:04.564Z,44.88
2018-12-18T02:21:38.035Z,43.55
2018-12-18T02:22:11.522Z,45.85
2018-12-18T02:22:45.061Z,43.75
2018-12-18T02:23:18.558Z,41.85
2018-12-18T02:23:52.001Z,45.60
2018-12-18T02:24:25.436Z,44.48
2018-12-18T02:25:04.114Z,46.63
2018-12-18T02:25:37.533Z,45.88
2018-12-18T02:26:10.972Z,45.43
2018-12-18T02:26:44.428Z,45.73
2018-12-18T02:27:17.894Z,46.02
2018-12-18T02:27:51.266Z,45.45
2018-12-18T02:28:24.707Z,44.60
2018-12-18T02:28:58.095Z,45.63
2018-12-18T02:29:31.482Z,44.30
2018-12-18T02:30:06.095Z,47.33
2018-12-18T02:30:39.561Z,46.63
2018-12-18T02:31:12.925Z,47.45
2018-12-18T02:31:46.298Z,47.17
2018-12-18T02:32:19.676Z,46.98
2018-12-18T02:32:53.053Z,47.00
2018-12-18T02:33:26.597Z,46.53
2018-12-18T02:34:00.038Z,45.85
2018-12-18T02:34:33.390Z,45.90
2018-12-18T02:35:07.908Z,46.02
2018-12-18T02:35:41.282Z,46.00
2018-12-18T02:36:14.752Z,46.48
2018-12-18T02:36:48.112Z,46.18
2018-12-18T02:37:21.486Z,48.30
2018-12-18T02:37:54.946Z,48.15
2018-12-18T02:38:28.313Z,46.90
2018-12-18T02:39:01.680Z,46.88
2018-12-18T02:39:36.324Z,47.35
2018-12-18T02:40:09.693Z,47.50
2018-12-18T02:40:43.837Z,47.58
2018-12-18T02:41:17.181Z,46.68
2018-12-18T02:41:50.551Z,46.58
2018-12-18T02:42:23.991Z,46.88
2018-12-18T02:42:57.343Z,47.20
2018-12-18T02:43:30.723Z,47.13
2018-12-18T02:44:04.078Z,45.23
2018-12-18T02:44:37.483Z,47.08
2018-12-18T02:45:10.875Z,46.25
2018-12-18T02:45:44.333Z,47.23
2018-12-18T02:46:17.821Z,47.33
2018-12-18T02:46:51.214Z,47.30
2018-12-18T02:47:24.707Z,47.95
2018-12-18T02:47:58.342Z,44.98
2018-12-18T02:48:31.821Z,47.17
2018-12-18T02:49:05.211Z,46.13
2018-12-18T02:49:38.551Z,47.10
2018-12-18T02:50:11.895Z,48.58
2018-12-18T02:50:45.280Z,46.75
2018-12-18T02:51:18.634Z,48.17
2018-12-18T02:51:51.965Z,47.78
2018-12-18T02:52:25.332Z,47.88
2018-12-18T02:52:59.833Z,48.70
2018-12-18T02:53:33.704Z,47.43
2018-12-18T02:54:07.064Z,47.13
2018-12-18T02:54:41.104Z,48.17
2018-12-18T02:55:32.122Z,47.93
2018-12-18T02:56:05.474Z,48.65
2018-12-18T02:56:38.894Z,47.55
2018-12-18T02:57:12.329Z,49.50
2018-12-18T02:57:45.713Z,48.30
2018-12-18T02:58:19.051Z,49.08
2018-12-18T02:58:52.411Z,48.68
2018-12-18T02:59:25.801Z,49.10
2018-12-18T02:59:59.206Z,49.30
2018-12-18T03:00:32.546Z,48.78
2018-12-18T03:01:05.916Z,48.00
2018-12-18T03:01:39.296Z,49.70
2018-12-18T03:02:12.689Z,47.90
2018-12-18T03:02:46.116Z,46.98
2018-12-18T03:03:19.511Z,48.83
2018-12-18T03:03:53.015Z,48.73
2018-12-18T03:04:26.415Z,46.28
2018-12-18T03:04:59.810Z,48.42
2018-12-18T03:05:33.667Z,49.67
2018-12-18T03:06:07.136Z,47.17
2018-12-18T03:06:40.553Z,48.63
2018-12-18T03:07:14.057Z,48.52
2018-12-18T03:07:47.465Z,48.45
2018-12-18T03:08:20.869Z,49.33
2018-12-18T03:08:54.268Z,49.15
2018-12-18T03:09:27.621Z,48.23
2018-12-18T03:10:00.993Z,48.38
2018-12-18T03:10:34.397Z,47.88
2018-12-18T03:11:09.887Z,48.65
2018-12-18T03:11:43.277Z,46.98
2018-12-18T03:12:16.674Z,49.42
2018-12-18T03:12:50.064Z,48.78
2018-12-18T03:13:23.460Z,47.95
2018-12-18T03:13:56.824Z,47.93
2018-12-18T03:14:30.179Z,47.10
2018-12-18T03:15:04.382Z,47.35
2018-12-18T03:15:37.781Z,47.80
2018-12-18T03:16:11.251Z,47.30
2018-12-18T03:16:44.739Z,48.33
2018-12-18T03:17:18.090Z,46.45
2018-12-18T03:17:51.556Z,46.88
2018-12-18T03:18:25.015Z,48.90
2018-12-18T03:18:58.421Z,48.20
2018-12-18T03:19:31.828Z,47.43
2018-12-18T03:20:06.445Z,46.85
2018-12-18T03:20:39.841Z,48.90
2018-12-18T03:21:13.323Z,48.65
2018-12-18T03:21:46.678Z,49.65
2018-12-18T03:22:20.050Z,46.83
2018-12-18T03:22:53.399Z,48.68
2018-12-18T03:23:26.737Z,47.33
2018-12-18T03:24:00.083Z,48.52
2018-12-18T03:24:33.450Z,46.75
2018-12-18T03:25:06.903Z,47.78
2018-12-18T03:25:40.448Z,46.95
2018-12-18T03:26:13.810Z,47.40
2018-12-18T03:26:47.161Z,49.05
2018-12-18T03:27:20.550Z,47.58
2018-12-18T03:27:53.932Z,48.23
2018-12-18T03:28:27.468Z,46.88
2018-12-18T03:29:00.982Z,47.80
2018-12-18T03:29:34.349Z,49.10
2018-12-18T03:30:08.853Z,48.35
2018-12-18T03:30:42.331Z,47.27
2018-12-18T03:31:15.685Z,47.85
2018-12-18T03:31:56.010Z,47.83
2018-12-18T03:32:35.269Z,47.08
2018-12-18T03:33:08.658Z,47.50
2018-12-18T03:33:43.707Z,46.48
2018-12-18T03:34:18.397Z,47.88
2018-12-18T03:34:51.747Z,48.30
2018-12-18T03:35:25.699Z,48.45
2018-12-18T03:35:59.165Z,45.78
2018-12-18T03:36:32.581Z,48.78
2018-12-18T03:37:05.917Z,48.48
2018-12-18T03:37:39.310Z,47.08
2018-12-18T03:38:12.683Z,47.88
2018-12-18T03:38:46.161Z,47.50
2018-12-18T03:39:19.543Z,47.90
2018-12-18T03:39:53.035Z,48.10
2018-12-18T03:40:28.660Z,48.05
2018-12-18T03:41:02.044Z,47.73
2018-12-18T03:41:35.973Z,49.53
2018-12-18T03:42:09.383Z,48.15
2018-12-18T03:42:42.815Z,48.10
2018-12-18T03:43:16.173Z,49.55
2018-12-18T03:43:49.689Z,47.85
2018-12-18T03:44:23.054Z,47.88
2018-12-18T03:44:56.455Z,49.15
2018-12-18T03:45:29.860Z,48.65
2018-12-18T03:46:03.411Z,48.38
2018-12-18T03:46:36.778Z,47.00
2018-12-18T03:47:10.201Z,46.85
2018-12-18T03:47:43.615Z,48.00
2018-12-18T03:48:16.963Z,48.35
2018-12-18T03:48:50.310Z,46.98
2018-12-18T03:49:23.717Z,47.00
2018-12-18T03:49:57.072Z,47.38
2018-12-18T03:50:30.441Z,46.90
2018-12-18T03:51:03.915Z,48.00
2018-12-18T03:51:37.362Z,46.58
2018-12-18T03:52:10.717Z,46.10
2018-12-18T03:52:44.090Z,46.50
2018-12-18T03:53:17.471Z,46.73
2018-12-18T03:53:50.843Z,44.45
2018-12-18T03:54:24.378Z,46.65
2018-12-18T03:54:57.715Z,47.85
2018-12-18T03:55:31.071Z,46.23
2018-12-18T03:56:06.428Z,45.88
2018-12-18T03:56:39.826Z,47.95
2018-12-18T03:57:13.206Z,47.83
2018-12-18T03:57:46.561Z,46.58
2018-12-18T03:58:19.974Z,47.65
2018-12-18T03:58:53.467Z,47.67
2018-12-18T03:59:26.856Z,47.58
2018-12-18T04:00:00.269Z,45.95
2018-12-18T04:00:33.709Z,46.77
2018-12-18T04:01:07.128Z,47.33
2018-12-18T04:01:40.505Z,47.03
2018-12-18T04:02:13.901Z,47.13
2018-12-18T04:02:47.264Z,46.05
2018-12-18T04:03:20.779Z,45.75
2018-12-18T04:03:54.133Z,46.73
2018-12-18T04:04:27.610Z,47.27
2018-12-18T04:05:01.009Z,45.95
2018-12-18T04:05:34.382Z,44.95
2018-12-18T04:06:07.756Z,45.17
2018-12-18T04:06:41.185Z,46.02
2018-12-18T04:07:14.530Z,46.20
2018-12-18T04:07:47.869Z,45.52
2018-12-18T04:08:21.301Z,46.55
2018-12-18T04:08:54.761Z,45.17
2018-12-18T04:09:28.142Z,46.25
2018-12-18T04:10:01.548Z,45.70
2018-12-18T04:10:35.038Z,45.28
2018-12-18T04:11:08.559Z,45.73
2018-12-18T04:11:47.663Z,44.85
2018-12-18T04:12:21.766Z,42.70
2018-12-18T04:12:55.206Z,45.75
2018-12-18T04:13:28.578Z,46.53
2018-12-18T04:14:01.977Z,45.25
2018-12-18T04:14:35.929Z,45.10
2018-12-18T04:15:09.590Z,44.20
2018-12-18T04:15:42.940Z,44.73
2018-12-18T04:16:16.337Z,45.05
2018-12-18T04:16:49.674Z,45.55
2018-12-18T04:17:24.210Z,45.48
2018-12-18T04:17:57.592Z,44.45
2018-12-18T04:18:30.984Z,45.25
2018-12-18T04:19:04.412Z,45.52
2018-12-18T04:19:37.766Z,44.27
2018-12-18T04:20:11.358Z,44.37
2018-12-18T04:20:44.839Z,44.13
2018-12-18T04:21:18.209Z,44.93
2018-12-18T04:21:51.696Z,44.18
2018-12-18T04:22:25.096Z,43.73
2018-12-18T04:22:58.485Z,46.28
2018-12-18T04:23:32.960Z,44.27
2018-12-18T04:24:06.342Z,45.50
2018-12-18T04:24:39.704Z,44.60
2018-12-18T04:25:13.252Z,44.13
2018-12-18T04:25:47.970Z,44.63
2018-12-18T04:26:21.346Z,44.83
2018-12-18T04:26:54.690Z,43.90
2018-12-18T04:27:28.052Z,44.77
2018-12-18T04:28:01.444Z,44.90
2018-12-18T04:28:34.954Z,43.45
2018-12-18T04:29:09.460Z,43.83
2018-12-18T04:29:42.814Z,44.40
2018-12-18T04:30:16.206Z,44.95
2018-12-18T04:30:49.537Z,42.98
2018-12-18T04:31:22.940Z,44.23
2018-12-18T04:31:56.460Z,43.83
2018-12-18T04:32:30.968Z,43.90
2018-12-18T04:33:06.351Z,44.35
2018-12-18T04:33:41.767Z,44.63
2018-12-18T04:34:15.312Z,44.55
2018-12-18T04:34:48.702Z,44.75
2018-12-18T04:35:22.100Z,44.70
2018-12-18T04:35:55.523Z,44.58
2018-12-18T04:36:28.939Z,43.38
2018-12-18T04:37:02.334Z,44.63
2018-12-18T04:37:35.708Z,43.35
2018-12-18T04:38:09.074Z,43.33
2018-12-18T04:38:42.468Z,42.98
2018-12-18T04:39:16.339Z,44.18
2018-12-18T04:39:50.170Z,44.58
2018-12-18T04:40:23.683Z,43.40
2018-12-18T04:40:57.107Z,43.90
2018-12-18T04:41:30.505Z,44.42
2018-12-18T04:42:03.901Z,44.13
2018-12-18T04:42:37.399Z,43.58
2018-12-18T04:43:10.750Z,45.60
2018-12-18T04:43:44.139Z,43.90
2018-12-18T04:44:17.515Z,43.68
2018-12-18T04:44:50.867Z,44.75
2018-12-18T04:45:24.463Z,44.08
2018-12-18T04:45:58.113Z,45.70
2018-12-18T04:46:31.543Z,44.33
2018-12-18T04:47:05.273Z,43.78
2018-12-18T04:48:25.351Z,44.38
2018-12-18T04:48:58.670Z,43.87
2018-12-18T04:49:33.229Z,44.30
2018-12-18T04:50:06.871Z,44.88
2018-12-18T04:50:40.219Z,45.25
2018-12-18T04:51:13.591Z,45.23
2018-12-18T04:51:47.047Z,45.03
2018-12-18T04:52:20.459Z,43.65
2018-12-18T04:52:53.791Z,43.80
2018-12-18T04:53:27.173Z,42.05
2018-12-18T04:54:00.553Z,43.73
2018-12-18T04:54:33.892Z,44.83
2018-12-18T04:55:08.395Z,45.05
2018-12-18T04:55:41.881Z,45.50
2018-12-18T04:56:15.205Z,43.78
2018-12-18T04:56:48.599Z,44.10
2018-12-18T04:57:21.975Z,45.52
2018-12-18T04:57:55.313Z,44.75
2018-12-18T04:58:28.825Z,43.63
2018-12-18T04:59:02.277Z,42.93
2018-12-18T04:59:35.667Z,43.42
2018-12-18T05:00:09.779Z,44.08
2018-12-18T05:00:43.200Z,43.98
2018-12-18T05:01:16.528Z,43.23
2018-12-18T05:01:49.907Z,44.38
2018-12-18T05:02:23.284Z,44.15
2018-12-18T05:02:56.676Z,44.03
2018-12-18T05:03:30.056Z,42.88
2018-12-18T05:04:04.010Z,44.27
2018-12-18T05:04:37.527Z,44.65
2018-12-18T05:05:10.894Z,43.92
2018-12-18T05:05:44.242Z,43.92
2018-12-18T05:06:17.921Z,44.23
2018-12-18T05:06:51.252Z,44.25
2018-12-18T05:07:24.740Z,45.60
2018-12-18T05:07:58.091Z,43.85
2018-12-18T05:08:31.565Z,43.65
2018-12-18T05:09:08.428Z,43.90
2018-12-18T05:09:41.838Z,43.45
2018-12-18T05:10:15.237Z,43.48
2018-12-18T05:10:48.690Z,43.48
2018-12-18T05:11:22.041Z,42.98
2018-12-18T05:11:55.402Z,42.80
2018-12-18T05:12:28.780Z,43.23
2018-12-18T05:13:02.296Z,43.92
2018-12-18T05:13:35.666Z,43.65
2018-12-18T05:14:09.050Z,42.80
2018-12-18T05:14:42.402Z,42.73
2018-12-18T05:15:15.774Z,44.70
2018-12-18T05:15:49.162Z,43.25
2018-12-18T05:16:22.589Z,42.13
2018-12-18T05:16:56.058Z,43.00
2018-12-18T05:17:29.419Z,43.02
2018-12-18T05:18:02.784Z,41.88
2018-12-18T05:18:36.360Z,42.45
2018-12-18T05:19:09.742Z,42.40
2018-12-18T05:19:43.198Z,42.40
2018-12-18T05:20:16.715Z,41.77
2018-12-18T05:20:51.118Z,41.75
2018-12-18T05:21:24.496Z,42.10
2018-12-18T05:21:57.882Z,41.75
2018-12-18T05:22:31.216Z,41.68
2018-12-18T05:23:04.738Z,41.37
2018-12-18T05:23:38.078Z,41.50
2018-12-18T05:24:11.527Z,42.62
2018-12-18T05:24:44.971Z,41.35
2018-12-18T05:25:18.338Z,42.33
2018-12-18T05:25:51.753Z,42.05
2018-12-18T05:26:25.130Z,41.37
2018-12-18T05:26:58.532Z,40.58
2018-12-18T05:27:32.034Z,41.95
2018-12-18T05:28:05.528Z,41.77
2018-12-18T05:28:38.873Z,40.52
2018-12-18T05:29:12.206Z,41.95
2018-12-18T05:29:45.574Z,42.73
2018-12-18T05:30:18.992Z,42.78
2018-12-18T05:30:52.329Z,42.58
2018-12-18T05:31:25.752Z,42.88
2018-12-18T05:31:59.120Z,41.48
2018-12-18T05:32:32.502Z,42.98
2018-12-18T05:33:05.889Z,41.42
2018-12-18T05:33:39.292Z,41.68
2018-12-18T05:34:12.656Z,43.23
2018-12-18T05:34:46.020Z,43.08
2018-12-18T05:35:19.365Z,42.90
2018-12-18T05:35:52.694Z,41.63
2018-12-18T05:36:26.205Z,43.45
2018-12-18T05:36:59.566Z,43.00
2018-12-18T05:37:32.960Z,42.13
2018-12-18T05:38:06.418Z,42.75
2018-12-18T05:38:39.798Z,43.42
2018-12-18T05:39:13.188Z,42.23
2018-12-18T05:39:46.597Z,43.70
2018-12-18T05:40:19.978Z,42.25
2018-12-18T05:40:53.338Z,42.48
2018-12-18T05:41:26.806Z,42.25
2018-12-18T05:42:00.311Z,42.45
2018-12-18T05:42:33.642Z,41.48
2018-12-18T05:43:07.083Z,41.18
2018-12-18T05:43:40.575Z,41.83
2018-12-18T05:44:13.971Z,41.77
2018-12-18T05:44:47.358Z,42.95
2018-12-18T05:45:20.726Z,42.58
2018-12-18T05:45:54.121Z,42.90
2018-12-18T05:46:27.601Z,42.90
2018-12-18T05:47:00.972Z,43.02
2018-12-18T05:47:34.366Z,41.30
2018-12-18T05:48:07.742Z,43.38
2018-12-18T05:48:41.236Z,43.80
2018-12-18T05:49:14.631Z,42.85
2018-12-18T05:49:47.963Z,43.55
2018-12-18T05:50:21.486Z,43.05
2018-12-18T05:50:54.907Z,42.80
2018-12-18T05:51:28.261Z,44.10
2018-12-18T05:52:01.649Z,44.05
2018-12-18T05:52:35.048Z,43.60
2018-12-18T05:53:08.457Z,44.75
2018-12-18T05:53:41.883Z,43.45
2018-12-18T05:54:15.247Z,44.98
2018-12-18T05:54:48.589Z,43.90
2018-12-18T05:55:22.019Z,43.05
2018-12-18T05:55:55.422Z,44.40
2018-12-18T05:56:28.841Z,43.87
2018-12-18T05:57:02.267Z,43.48
2018-12-18T05:57:35.617Z,43.00
2018-12-18T05:58:08.975Z,43.50
2018-12-18T05:58:42.583Z,44.50
2018-12-18T05:59:15.948Z,44.05
2018-12-18T05:59:49.387Z,44.48
2018-12-18T06:00:22.806Z,43.90
2018-12-18T06:00:56.278Z,44.77
2018-12-18T06:01:29.639Z,42.85
2018-12-18T06:02:03.197Z,43.20
2018-12-18T06:02:36.610Z,43.25
2018-12-18T06:03:10.060Z,44.65
2018-12-18T06:03:43.528Z,45.40
2018-12-18T06:04:16.883Z,44.90
2018-12-18T06:04:50.260Z,44.33
2018-12-18T06:05:23.597Z,45.40
2018-12-18T06:05:56.983Z,45.33
2018-12-18T06:06:30.365Z,45.38
2018-12-18T06:07:03.848Z,44.38
2018-12-18T06:07:37.311Z,44.93
2018-12-18T06:08:10.694Z,45.63
2018-12-18T06:08:44.081Z,44.80
2018-12-18T06:09:17.591Z,43.25
2018-12-18T06:09:51.000Z,44.67
2018-12-18T06:10:24.375Z,44.03
2018-12-18T06:11:05.823Z,45.75
2018-12-18T06:11:39.199Z,45.08
2018-12-18T06:12:12.557Z,45.35
2018-12-18T06:12:46.093Z,44.20
2018-12-18T06:13:19.665Z,46.70
2018-12-18T06:13:53.027Z,46.48
2018-12-18T06:14:26.361Z,44.05
2018-12-18T06:14:59.703Z,46.13
2018-12-18T06:15:33.077Z,45.95
2018-12-18T06:16:06.452Z,45.95
2018-12-18T06:16:39.797Z,46.28
2018-12-18T06:17:13.139Z,46.30
2018-12-18T06:17:46.537Z,47.78
2018-12-18T06:18:19.955Z,46.95
2018-12-18T06:18:53.249Z,46.68
2018-12-18T06:19:26.661Z,47.48
2018-12-18T06:20:00.045Z,46.13
2018-12-18T06:20:33.426Z,46.35
2018-12-18T06:21:06.841Z,48.45
2018-12-18T06:21:40.241Z,45.98
2018-12-18T06:22:13.575Z,46.20
2018-12-18T06:22:46.915Z,47.43
2018-12-18T06:23:20.299Z,45.83
2018-12-18T06:23:53.701Z,46.42
2018-12-18T06:24:27.075Z,46.45
2018-12-18T06:25:00.438Z,47.08
2018-12-18T06:25:33.811Z,46.60
2018-12-18T06:26:07.216Z,47.10
2018-12-18T06:26:40.577Z,45.95
2018-12-18T06:27:13.941Z,46.75
2018-12-18T06:27:47.335Z,46.98
2018-12-18T06:28:20.681Z,45.80
2018-12-18T06:28:54.055Z,46.77
2018-12-18T06:29:27.511Z,46.18
2018-12-18T06:30:00.917Z,46.65
2018-12-18T06:30:34.453Z,46.42
2018-12-18T06:31:07.895Z,46.05
2018-12-18T06:31:41.319Z,46.23
2018-12-18T06:32:14.678Z,45.20
2018-12-18T06:32:48.028Z,43.08
2018-12-18T06:33:21.411Z,45.67
2018-12-18T06:33:54.805Z,44.38
2018-12-18T06:34:28.253Z,46.10
2018-12-18T06:35:01.677Z,46.02
2018-12-18T06:35:35.014Z,46.73
2018-12-18T06:36:08.494Z,47.53
2018-12-18T06:36:41.849Z,44.75
2018-12-18T06:37:15.299Z,46.33
2018-12-18T06:37:48.807Z,46.30
2018-12-18T06:38:22.147Z,45.25
2018-12-18T06:38:55.554Z,46.77
2018-12-18T06:39:28.896Z,46.65
2018-12-18T06:40:02.416Z,47.17
2018-12-18T06:40:35.795Z,46.58
2018-12-18T06:41:09.231Z,46.23
2018-12-18T06:41:42.592Z,45.28
2018-12-18T06:42:15.941Z,45.38
2018-12-18T06:42:49.419Z,48.17
2018-12-18T06:43:22.857Z,47.20
2018-12-18T06:43:56.233Z,46.42
2018-12-18T06:44:29.607Z,45.20
2018-12-18T06:45:03.126Z,48.13
2018-12-18T06:45:36.544Z,46.00
2018-12-18T06:46:10.057Z,48.23
2018-12-18T06:46:43.404Z,47.15
2018-12-18T06:47:16.756Z,46.60
2018-12-18T06:47:50.237Z,46.18
2018-12-18T06:48:23.596Z,47.58
2018-12-18T06:48:56.985Z,46.75
2018-12-18T06:49:30.370Z,46.63
2018-12-18T06:50:04.087Z,46.92
2018-12-18T06:50:37.463Z,46.53
2018-12-18T06:51:10.854Z,46.83
2018-12-18T06:51:44.252Z,48.02
2018-12-18T06:52:17.669Z,48.73
2018-12-18T06:52:51.079Z,47.43
2018-12-18T06:53:24.433Z,46.53
2018-12-18T06:53:57.796Z,46.50
2018-12-18T06:54:31.176Z,46.92
2018-12-18T06:55:05.001Z,47.55
2018-12-18T06:55:38.358Z,46.65
2018-12-18T06:56:11.718Z,47.50
2018-12-18T06:56:45.046Z,47.23
2018-12-18T06:57:18.402Z,46.33
2018-12-18T06:57:51.818Z,48.13
2018-12-18T06:58:25.192Z,46.70
2018-12-18T06:58:58.592Z,47.62
2018-12-18T06:59:31.929Z,46.88
2018-12-18T07:00:09.733Z,44.90
2018-12-18T07:00:43.229Z,47.50
2018-12-18T07:01:16.612Z,46.92
2018-12-18T07:01:50.138Z,47.10
2018-12-18T07:02:23.496Z,47.65
2018-12-18T07:02:56.856Z,47.20
2018-12-18T07:03:30.246Z,44.85
2018-12-18T07:04:03.720Z,47.85
2018-12-18T07:04:37.141Z,46.40
2018-12-18T07:05:16.528Z,46.55
2018-12-18T07:05:46.016Z,47.40
2018-12-18T07:06:19.446Z,45.33
2018-12-18T07:06:52.884Z,46.25
2018-12-18T07:07:26.378Z,46.30
2018-12-18T07:07:59.746Z,46.00
2018-12-18T07:08:33.134Z,45.98
2018-12-18T07:09:08.393Z,46.37
2018-12-18T07:09:41.743Z,45.80
2018-12-18T07:10:15.125Z,45.83
2018-12-18T07:10:48.563Z,45.70
2018-12-18T07:11:21.966Z,45.23
2018-12-18T07:11:55.416Z,46.15
2018-12-18T07:12:28.817Z,46.63
2018-12-18T07:13:02.348Z,46.05
2018-12-18T07:13:35.698Z,47.95